sensor_id;sensor_type;location;lat;lon;timestamp;P1;durP1;ratioP1;P2;durP2;ratioP2
43327;SDS011;28923;45.412;10.852;2023-06-10T04:31:55;3.30;;;2.80;;
43327;SDS011;28923;45.412;10.852;2023-06-10T04:34:21;2.78;;;2.50;;
43327;SDS011;28923;45.412;10.852;2023-06-10T04:36:46;3.53;;;2.60;;
43327;SDS011;28923;45.412;10.852;2023-06-10T04:39:13;2.25;;;2.05;;
43327;SDS011;28923;45.412;10.852;2023-06-10T04:41:42;3.03;;;2.72;;
43327;SDS011;28923;45.412;10.852;2023-06-10T04:44:08;3.03;;;2.72;;
43327;SDS011;28923;45.412;10.852;2023-06-10T04:46:34;2.70;;;2.50;;
43327;SDS011;28923;45.412;10.852;2023-06-10T04:49:00;3.30;;;2.50;;
43327;SDS011;28923;45.412;10.852;2023-06-10T04:51:31;6.40;;;5.80;;
43327;SDS011;28923;45.412;10.852;2023-06-10T04:53:58;5.70;;;4.57;;
43327;SDS011;28923;45.412;10.852;2023-06-10T04:56:30;8.80;;;7.03;;
43327;SDS011;28923;45.412;10.852;2023-06-10T04:58:59;12.43;;;8.30;;
43327;SDS011;28923;45.412;10.852;2023-06-10T05:01:27;8.07;;;7.05;;
43327;SDS011;28923;45.412;10.852;2023-06-10T05:03:55;10.43;;;8.23;;
43327;SDS011;28923;45.412;10.852;2023-06-10T05:06:22;10.20;;;8.25;;
43327;SDS011;28923;45.412;10.852;2023-06-10T05:08:48;12.30;;;10.05;;
43327;SDS011;28923;45.412;10.852;2023-06-10T05:11:15;10.18;;;9.05;;
43327;SDS011;28923;45.412;10.852;2023-06-10T05:13:45;12.15;;;8.98;;
43327;SDS011;28923;45.412;10.852;2023-06-10T05:16:13;14.82;;;8.60;;
43327;SDS011;28923;45.412;10.852;2023-06-10T05:18:40;13.77;;;9.68;;
43327;SDS011;28923;45.412;10.852;2023-06-10T05:21:06;9.82;;;8.80;;
43327;SDS011;28923;45.412;10.852;2023-06-10T05:23:34;11.50;;;9.48;;
43327;SDS011;28923;45.412;10.852;2023-06-10T05:26:00;10.15;;;9.05;;
43327;SDS011;28923;45.412;10.852;2023-06-10T05:28:25;11.13;;;9.48;;
43327;SDS011;28923;45.412;10.852;2023-06-10T05:30:51;11.07;;;8.93;;
43327;SDS011;28923;45.412;10.852;2023-06-10T05:33:18;11.50;;;9.25;;
43327;SDS011;28923;45.412;10.852;2023-06-10T05:35:44;10.48;;;9.02;;
43327;SDS011;28923;45.412;10.852;2023-06-10T05:38:10;10.50;;;8.77;;
43327;SDS011;28923;45.412;10.852;2023-06-10T05:40:37;11.40;;;9.70;;
43327;SDS011;28923;45.412;10.852;2023-06-10T05:43:04;10.07;;;8.77;;
43327;SDS011;28923;45.412;10.852;2023-06-10T05:45:31;13.70;;;8.65;;
43327;SDS011;28923;45.412;10.852;2023-06-10T05:47:56;22.55;;;8.60;;
43327;SDS011;28923;45.412;10.852;2023-06-10T05:50:23;9.30;;;8.30;;
43327;SDS011;28923;45.412;10.852;2023-06-10T05:52:49;14.15;;;7.90;;
43327;SDS011;28923;45.412;10.852;2023-06-10T05:55:15;13.38;;;8.20;;
43327;SDS011;28923;45.412;10.852;2023-06-10T05:57:41;10.80;;;7.20;;
43327;SDS011;28923;45.412;10.852;2023-06-10T06:00:07;11.98;;;7.40;;
43327;SDS011;28923;45.412;10.852;2023-06-10T06:02:37;9.30;;;6.70;;
43327;SDS011;28923;45.412;10.852;2023-06-10T06:05:03;8.02;;;6.45;;
43327;SDS011;28923;45.412;10.852;2023-06-10T06:07:29;8.57;;;6.13;;
43327;SDS011;28923;45.412;10.852;2023-06-10T06:09:54;7.45;;;5.80;;
43327;SDS011;28923;45.412;10.852;2023-06-10T06:12:20;10.80;;;6.22;;
43327;SDS011;28923;45.412;10.852;2023-06-10T06:14:45;8.43;;;6.28;;
43327;SDS011;28923;45.412;10.852;2023-06-10T06:17:10;10.80;;;8.65;;
43327;SDS011;28923;45.412;10.852;2023-06-10T06:19:36;8.07;;;7.00;;
43327;SDS011;28923;45.412;10.852;2023-06-10T06:22:01;7.43;;;6.07;;
43327;SDS011;28923;45.412;10.852;2023-06-10T06:24:27;7.60;;;6.40;;
43327;SDS011;28923;45.412;10.852;2023-06-10T06:26:53;7.03;;;5.97;;
43327;SDS011;28923;45.412;10.852;2023-06-10T06:29:18;9.90;;;6.40;;
43327;SDS011;28923;45.412;10.852;2023-06-10T06:31:43;8.38;;;6.13;;
43327;SDS011;28923;45.412;10.852;2023-06-10T06:34:09;6.32;;;5.57;;
43327;SDS011;28923;45.412;10.852;2023-06-10T06:36:34;8.82;;;5.03;;
43327;SDS011;28923;45.412;10.852;2023-06-10T06:39:00;6.22;;;4.90;;
43327;SDS011;28923;45.412;10.852;2023-06-10T06:41:26;5.05;;;4.55;;
43327;SDS011;28923;45.412;10.852;2023-06-10T06:43:53;5.75;;;4.22;;
43327;SDS011;28923;45.412;10.852;2023-06-10T06:46:29;5.28;;;4.18;;
43327;SDS011;28923;45.412;10.852;2023-06-10T06:48:54;4.90;;;3.75;;
43327;SDS011;28923;45.412;10.852;2023-06-10T06:51:20;5.75;;;4.80;;
43327;SDS011;28923;45.412;10.852;2023-06-10T06:53:45;4.45;;;3.97;;
43327;SDS011;28923;45.412;10.852;2023-06-10T06:56:11;7.22;;;4.05;;
43327;SDS011;28923;45.412;10.852;2023-06-10T06:58:36;8.93;;;5.00;;
43327;SDS011;28923;45.412;10.852;2023-06-10T07:01:02;8.25;;;5.10;;
43327;SDS011;28923;45.412;10.852;2023-06-10T07:03:27;8.48;;;5.07;;
43327;SDS011;28923;45.412;10.852;2023-06-10T07:05:53;7.05;;;4.68;;
43327;SDS011;28923;45.412;10.852;2023-06-10T07:08:18;19.40;;;14.40;;
43327;SDS011;28923;45.412;10.852;2023-06-10T07:10:43;21.20;;;16.13;;
43327;SDS011;28923;45.412;10.852;2023-06-10T07:13:09;20.58;;;16.25;;
43327;SDS011;28923;45.412;10.852;2023-06-10T07:15:34;22.08;;;16.73;;
43327;SDS011;28923;45.412;10.852;2023-06-10T07:17:59;19.27;;;16.02;;
43327;SDS011;28923;45.412;10.852;2023-06-10T07:20:25;20.67;;;15.02;;
43327;SDS011;28923;45.412;10.852;2023-06-10T07:22:50;20.65;;;15.63;;
43327;SDS011;28923;45.412;10.852;2023-06-10T07:25:15;18.33;;;15.65;;
43327;SDS011;28923;45.412;10.852;2023-06-10T07:27:41;21.30;;;15.77;;
43327;SDS011;28923;45.412;10.852;2023-06-10T07:30:06;19.33;;;15.90;;
43327;SDS011;28923;45.412;10.852;2023-06-10T07:32:33;22.15;;;14.48;;
43327;SDS011;28923;45.412;10.852;2023-06-10T07:34:58;23.27;;;17.50;;
43327;SDS011;28923;45.412;10.852;2023-06-10T07:37:24;24.50;;;18.42;;
43327;SDS011;28923;45.412;10.852;2023-06-10T07:39:49;20.27;;;17.35;;
43327;SDS011;28923;45.412;10.852;2023-06-10T07:42:15;18.33;;;14.73;;
43327;SDS011;28923;45.412;10.852;2023-06-10T07:44:40;16.40;;;14.20;;
43327;SDS011;28923;45.412;10.852;2023-06-10T07:47:05;19.48;;;14.23;;
43327;SDS011;28923;45.412;10.852;2023-06-10T07:49:31;21.40;;;15.70;;
43327;SDS011;28923;45.412;10.852;2023-06-10T07:51:56;18.10;;;14.02;;
43327;SDS011;28923;45.412;10.852;2023-06-10T07:54:22;17.77;;;13.25;;
43327;SDS011;28923;45.412;10.852;2023-06-10T07:56:47;18.40;;;13.38;;
43327;SDS011;28923;45.412;10.852;2023-06-10T07:59:16;19.00;;;12.40;;
43327;SDS011;28923;45.412;10.852;2023-06-10T08:01:41;19.75;;;13.45;;
43327;SDS011;28923;45.412;10.852;2023-06-10T08:04:07;14.95;;;12.75;;
43327;SDS011;28923;45.412;10.852;2023-06-10T08:06:33;16.02;;;11.95;;
43327;SDS011;28923;45.412;10.852;2023-06-10T08:08:58;14.45;;;11.18;;
43327;SDS011;28923;45.412;10.852;2023-06-10T08:11:25;15.35;;;11.85;;
43327;SDS011;28923;45.412;10.852;2023-06-10T08:13:53;13.35;;;11.45;;
43327;SDS011;28923;45.412;10.852;2023-06-10T08:16:18;15.23;;;9.68;;
43327;SDS011;28923;45.412;10.852;2023-06-10T08:18:44;17.65;;;9.27;;
43327;SDS011;28923;45.412;10.852;2023-06-10T08:21:09;13.00;;;8.68;;
43327;SDS011;28923;45.412;10.852;2023-06-10T08:23:35;16.83;;;9.05;;
43327;SDS011;28923;45.412;10.852;2023-06-10T08:26:00;10.05;;;7.57;;
43327;SDS011;28923;45.412;10.852;2023-06-10T08:28:25;11.80;;;6.97;;
43327;SDS011;28923;45.412;10.852;2023-06-10T08:30:51;9.20;;;7.03;;
43327;SDS011;28923;45.412;10.852;2023-06-10T08:33:16;12.40;;;6.80;;
43327;SDS011;28923;45.412;10.852;2023-06-10T08:35:41;10.27;;;6.35;;
43327;SDS011;28923;45.412;10.852;2023-06-10T08:38:07;9.90;;;6.07;;
43327;SDS011;28923;45.412;10.852;2023-06-10T08:40:32;7.88;;;5.85;;
43327;SDS011;28923;45.412;10.852;2023-06-10T08:45:23;6.55;;;4.95;;
43327;SDS011;28923;45.412;10.852;2023-06-10T08:47:49;7.93;;;4.88;;
43327;SDS011;28923;45.412;10.852;2023-06-10T08:50:17;7.03;;;4.57;;
43327;SDS011;28923;45.412;10.852;2023-06-10T08:52:43;8.20;;;4.85;;
43327;SDS011;28923;45.412;10.852;2023-06-10T08:55:21;19.65;;;5.07;;
43327;SDS011;28923;45.412;10.852;2023-06-10T08:57:51;5.25;;;4.28;;
43327;SDS011;28923;45.412;10.852;2023-06-10T09:00:16;6.20;;;3.88;;
43327;SDS011;28923;45.412;10.852;2023-06-10T09:02:42;7.90;;;3.35;;
43327;SDS011;28923;45.412;10.852;2023-06-10T09:05:08;5.95;;;3.47;;
43327;SDS011;28923;45.412;10.852;2023-06-10T09:07:34;8.70;;;3.83;;
43327;SDS011;28923;45.412;10.852;2023-06-10T09:10:01;4.88;;;3.33;;
43327;SDS011;28923;45.412;10.852;2023-06-10T09:12:29;8.25;;;3.20;;
43327;SDS011;28923;45.412;10.852;2023-06-10T09:14:55;4.60;;;3.33;;
43327;SDS011;28923;45.412;10.852;2023-06-10T09:17:22;6.28;;;3.20;;
43327;SDS011;28923;45.412;10.852;2023-06-10T09:19:49;5.43;;;3.10;;
43327;SDS011;28923;45.412;10.852;2023-06-10T09:22:23;2.97;;;2.58;;
43327;SDS011;28923;45.412;10.852;2023-06-10T09:25:01;3.75;;;2.90;;
43327;SDS011;28923;45.412;10.852;2023-06-10T09:27:29;2.90;;;2.40;;
43327;SDS011;28923;45.412;10.852;2023-06-10T09:29:54;5.25;;;3.13;;
43327;SDS011;28923;45.412;10.852;2023-06-10T09:32:20;3.25;;;2.53;;
43327;SDS011;28923;45.412;10.852;2023-06-10T09:34:45;4.90;;;2.88;;
43327;SDS011;28923;45.412;10.852;2023-06-10T09:37:11;4.93;;;3.10;;
43327;SDS011;28923;45.412;10.852;2023-06-10T09:39:39;3.05;;;2.42;;
43327;SDS011;28923;45.412;10.852;2023-06-10T09:42:17;3.50;;;2.30;;
43327;SDS011;28923;45.412;10.852;2023-06-10T09:44:49;2.60;;;2.10;;
43327;SDS011;28923;45.412;10.852;2023-06-10T09:47:19;2.60;;;2.30;;
43327;SDS011;28923;45.412;10.852;2023-06-10T09:49:45;2.95;;;2.25;;
43327;SDS011;28923;45.412;10.852;2023-06-10T09:52:11;3.10;;;2.40;;
43327;SDS011;28923;45.412;10.852;2023-06-10T09:54:36;2.13;;;1.83;;
43327;SDS011;28923;45.412;10.852;2023-06-10T09:57:06;3.22;;;2.33;;
43327;SDS011;28923;45.412;10.852;2023-06-10T09:59:31;2.33;;;1.98;;
43327;SDS011;28923;45.412;10.852;2023-06-10T10:01:57;2.20;;;1.95;;
43327;SDS011;28923;45.412;10.852;2023-06-10T10:04:23;3.53;;;2.17;;
43327;SDS011;28923;45.412;10.852;2023-06-10T10:06:49;3.47;;;1.90;;
43327;SDS011;28923;45.412;10.852;2023-06-10T10:09:15;2.08;;;1.67;;
43327;SDS011;28923;45.412;10.852;2023-06-10T10:11:40;2.78;;;1.90;;
43327;SDS011;28923;45.412;10.852;2023-06-10T10:14:07;2.28;;;2.00;;
43327;SDS011;28923;45.412;10.852;2023-06-10T10:16:35;3.05;;;1.77;;
43327;SDS011;28923;45.412;10.852;2023-06-10T10:19:16;2.60;;;1.80;;
43327;SDS011;28923;45.412;10.852;2023-06-10T10:21:46;2.25;;;1.70;;
43327;SDS011;28923;45.412;10.852;2023-06-10T10:24:18;2.90;;;1.90;;
43327;SDS011;28923;45.412;10.852;2023-06-10T10:26:45;1.83;;;1.40;;
43327;SDS011;28923;45.412;10.852;2023-06-10T10:29:14;1.70;;;1.55;;
43327;SDS011;28923;45.412;10.852;2023-06-10T10:31:42;2.00;;;1.80;;
43327;SDS011;28923;45.412;10.852;2023-06-10T10:34:09;2.67;;;1.75;;
43327;SDS011;28923;45.412;10.852;2023-06-10T10:36:37;1.92;;;1.40;;
43327;SDS011;28923;45.412;10.852;2023-06-10T10:39:04;2.20;;;1.63;;
43327;SDS011;28923;45.412;10.852;2023-06-10T10:41:30;2.20;;;1.80;;
43327;SDS011;28923;45.412;10.852;2023-06-10T10:43:56;2.28;;;1.48;;
43327;SDS011;28923;45.412;10.852;2023-06-10T10:46:21;2.00;;;1.52;;
43327;SDS011;28923;45.412;10.852;2023-06-10T10:48:49;2.92;;;1.67;;
43327;SDS011;28923;45.412;10.852;2023-06-10T10:51:16;1.60;;;1.30;;
43327;SDS011;28923;45.412;10.852;2023-06-10T10:53:41;2.10;;;1.80;;
43327;SDS011;28923;45.412;10.852;2023-06-10T10:56:13;2.00;;;1.52;;
43327;SDS011;28923;45.412;10.852;2023-06-10T10:58:39;2.10;;;1.45;;
43327;SDS011;28923;45.412;10.852;2023-06-10T11:01:11;1.73;;;1.40;;
43327;SDS011;28923;45.412;10.852;2023-06-10T11:03:42;1.42;;;1.33;;
43327;SDS011;28923;45.412;10.852;2023-06-10T11:06:11;3.38;;;1.52;;
43327;SDS011;28923;45.412;10.852;2023-06-10T11:11:18;1.75;;;1.40;;
43327;SDS011;28923;45.412;10.852;2023-06-10T11:13:57;1.45;;;1.33;;
43327;SDS011;28923;45.412;10.852;2023-06-10T11:16:22;2.17;;;1.45;;
43327;SDS011;28923;45.412;10.852;2023-06-10T11:18:53;1.77;;;1.30;;
43327;SDS011;28923;45.412;10.852;2023-06-10T11:21:18;2.08;;;1.52;;
43327;SDS011;28923;45.412;10.852;2023-06-10T11:23:44;1.52;;;1.15;;
43327;SDS011;28923;45.412;10.852;2023-06-10T11:28:38;1.67;;;1.38;;
43327;SDS011;28923;45.412;10.852;2023-06-10T11:31:03;2.13;;;1.30;;
43327;SDS011;28923;45.412;10.852;2023-06-10T11:33:29;1.35;;;1.13;;
43327;SDS011;28923;45.412;10.852;2023-06-10T11:35:55;1.75;;;1.40;;
43327;SDS011;28923;45.412;10.852;2023-06-10T11:38:21;1.52;;;1.30;;
43327;SDS011;28923;45.412;10.852;2023-06-10T11:40:49;2.28;;;1.25;;
43327;SDS011;28923;45.412;10.852;2023-06-10T11:43:16;2.60;;;1.50;;
43327;SDS011;28923;45.412;10.852;2023-06-10T11:45:42;1.45;;;1.35;;
43327;SDS011;28923;45.412;10.852;2023-06-10T11:48:09;1.52;;;1.17;;
43327;SDS011;28923;45.412;10.852;2023-06-10T11:50:34;2.30;;;1.50;;
43327;SDS011;28923;45.412;10.852;2023-06-10T11:53:00;1.60;;;1.35;;
43327;SDS011;28923;45.412;10.852;2023-06-10T11:55:26;1.40;;;1.30;;
43327;SDS011;28923;45.412;10.852;2023-06-10T11:57:51;1.20;;;0.93;;
43327;SDS011;28923;45.412;10.852;2023-06-10T12:00:22;2.55;;;1.55;;
43327;SDS011;28923;45.412;10.852;2023-06-10T12:02:54;1.38;;;1.17;;
43327;SDS011;28923;45.412;10.852;2023-06-10T12:05:22;1.42;;;1.10;;
43327;SDS011;28923;45.412;10.852;2023-06-10T12:07:47;1.75;;;1.30;;
43327;SDS011;28923;45.412;10.852;2023-06-10T12:10:13;1.17;;;1.08;;
43327;SDS011;28923;45.412;10.852;2023-06-10T12:12:38;2.22;;;1.30;;
43327;SDS011;28923;45.412;10.852;2023-06-10T12:15:04;1.85;;;1.27;;
43327;SDS011;28923;45.412;10.852;2023-06-10T12:20:03;2.03;;;1.35;;
43327;SDS011;28923;45.412;10.852;2023-06-10T12:22:38;1.40;;;1.08;;
43327;SDS011;28923;45.412;10.852;2023-06-10T12:25:04;1.88;;;1.35;;
43327;SDS011;28923;45.412;10.852;2023-06-10T12:27:32;1.33;;;1.20;;
43327;SDS011;28923;45.412;10.852;2023-06-10T12:29:59;2.10;;;1.10;;
43327;SDS011;28923;45.412;10.852;2023-06-10T12:35:24;2.10;;;1.38;;
43327;SDS011;28923;45.412;10.852;2023-06-10T12:40:31;3.92;;;1.63;;
43327;SDS011;28923;45.412;10.852;2023-06-10T12:42:58;3.88;;;1.60;;
43327;SDS011;28923;45.412;10.852;2023-06-10T12:45:27;2.95;;;1.55;;
43327;SDS011;28923;45.412;10.852;2023-06-10T12:48:03;2.00;;;1.55;;
43327;SDS011;28923;45.412;10.852;2023-06-10T12:50:29;2.10;;;1.20;;
43327;SDS011;28923;45.412;10.852;2023-06-10T12:52:55;2.95;;;1.65;;
43327;SDS011;28923;45.412;10.852;2023-06-10T12:55:20;2.03;;;1.30;;
43327;SDS011;28923;45.412;10.852;2023-06-10T12:57:50;3.45;;;1.73;;
43327;SDS011;28923;45.412;10.852;2023-06-10T13:00:16;3.00;;;1.60;;
43327;SDS011;28923;45.412;10.852;2023-06-10T13:02:41;2.53;;;1.70;;
43327;SDS011;28923;45.412;10.852;2023-06-10T13:05:07;1.33;;;1.17;;
43327;SDS011;28923;45.412;10.852;2023-06-10T13:07:32;4.05;;;1.70;;
43327;SDS011;28923;45.412;10.852;2023-06-10T13:09:58;3.15;;;1.30;;
43327;SDS011;28923;45.412;10.852;2023-06-10T13:12:25;1.67;;;1.58;;
43327;SDS011;28923;45.412;10.852;2023-06-10T13:14:50;2.40;;;1.23;;
43327;SDS011;28923;45.412;10.852;2023-06-10T13:17:15;1.92;;;1.30;;
43327;SDS011;28923;45.412;10.852;2023-06-10T13:19:41;1.70;;;1.23;;
43327;SDS011;28923;45.412;10.852;2023-06-10T13:22:07;2.28;;;1.20;;
43327;SDS011;28923;45.412;10.852;2023-06-10T13:24:32;1.98;;;1.40;;
43327;SDS011;28923;45.412;10.852;2023-06-10T13:26:58;5.07;;;1.40;;
43327;SDS011;28923;45.412;10.852;2023-06-10T13:29:23;2.10;;;1.55;;
43327;SDS011;28923;45.412;10.852;2023-06-10T13:31:48;2.97;;;1.33;;
43327;SDS011;28923;45.412;10.852;2023-06-10T13:34:14;1.80;;;1.25;;
43327;SDS011;28923;45.412;10.852;2023-06-10T13:36:39;2.05;;;1.60;;
43327;SDS011;28923;45.412;10.852;2023-06-10T13:39:05;1.92;;;1.33;;
43327;SDS011;28923;45.412;10.852;2023-06-10T13:41:30;1.92;;;1.35;;
43327;SDS011;28923;45.412;10.852;2023-06-10T13:43:55;3.42;;;1.48;;
43327;SDS011;28923;45.412;10.852;2023-06-10T13:46:21;2.95;;;1.33;;
43327;SDS011;28923;45.412;10.852;2023-06-10T13:48:47;2.75;;;1.60;;
43327;SDS011;28923;45.412;10.852;2023-06-10T13:51:12;2.67;;;1.60;;
43327;SDS011;28923;45.412;10.852;2023-06-10T13:53:37;1.70;;;1.40;;
43327;SDS011;28923;45.412;10.852;2023-06-10T13:56:03;2.28;;;1.23;;
43327;SDS011;28923;45.412;10.852;2023-06-10T13:58:28;2.05;;;1.40;;
43327;SDS011;28923;45.412;10.852;2023-06-10T14:00:54;3.63;;;2.17;;
43327;SDS011;28923;45.412;10.852;2023-06-10T14:03:19;2.40;;;1.42;;
43327;SDS011;28923;45.412;10.852;2023-06-10T14:05:45;2.25;;;1.38;;
43327;SDS011;28923;45.412;10.852;2023-06-10T14:08:10;2.28;;;1.70;;
43327;SDS011;28923;45.412;10.852;2023-06-10T14:10:36;1.50;;;1.40;;
43327;SDS011;28923;45.412;10.852;2023-06-10T14:13:02;2.15;;;1.42;;
43327;SDS011;28923;45.412;10.852;2023-06-10T14:15:27;2.13;;;1.30;;
43327;SDS011;28923;45.412;10.852;2023-06-10T14:17:53;1.50;;;1.40;;
43327;SDS011;28923;45.412;10.852;2023-06-10T14:20:18;2.78;;;1.35;;
43327;SDS011;28923;45.412;10.852;2023-06-10T14:22:44;1.98;;;1.27;;
43327;SDS011;28923;45.412;10.852;2023-06-10T14:25:09;3.47;;;1.70;;
43327;SDS011;28923;45.412;10.852;2023-06-10T14:27:36;3.97;;;1.65;;
43327;SDS011;28923;45.412;10.852;2023-06-10T14:30:01;1.75;;;1.20;;
43327;SDS011;28923;45.412;10.852;2023-06-10T14:32:28;2.10;;;1.30;;
43327;SDS011;28923;45.412;10.852;2023-06-10T14:34:53;1.52;;;1.33;;
43327;SDS011;28923;45.412;10.852;2023-06-10T14:37:18;4.50;;;1.23;;
43327;SDS011;28923;45.412;10.852;2023-06-10T14:39:44;3.10;;;1.20;;
43327;SDS011;28923;45.412;10.852;2023-06-10T14:42:09;2.70;;;1.42;;
43327;SDS011;28923;45.412;10.852;2023-06-10T14:44:35;2.50;;;1.55;;
43327;SDS011;28923;45.412;10.852;2023-06-10T14:47:00;3.90;;;1.70;;
43327;SDS011;28923;45.412;10.852;2023-06-10T14:49:26;1.80;;;1.13;;
43327;SDS011;28923;45.412;10.852;2023-06-10T14:51:51;2.10;;;1.33;;
43327;SDS011;28923;45.412;10.852;2023-06-10T14:54:17;2.17;;;1.80;;
43327;SDS011;28923;45.412;10.852;2023-06-10T14:56:42;3.20;;;1.67;;
43327;SDS011;28923;45.412;10.852;2023-06-10T14:59:08;3.88;;;1.50;;
43327;SDS011;28923;45.412;10.852;2023-06-10T15:01:33;1.90;;;1.38;;
43327;SDS011;28923;45.412;10.852;2023-06-10T15:03:58;2.78;;;1.40;;
43327;SDS011;28923;45.412;10.852;2023-06-10T15:06:24;1.92;;;1.30;;
43327;SDS011;28923;45.412;10.852;2023-06-10T15:08:50;3.83;;;1.65;;
43327;SDS011;28923;45.412;10.852;2023-06-10T15:11:15;2.90;;;1.40;;
43327;SDS011;28923;45.412;10.852;2023-06-10T15:13:40;4.28;;;1.30;;
43327;SDS011;28923;45.412;10.852;2023-06-10T15:16:06;2.25;;;1.30;;
43327;SDS011;28923;45.412;10.852;2023-06-10T15:18:31;1.55;;;1.25;;
43327;SDS011;28923;45.412;10.852;2023-06-10T15:20:57;3.10;;;1.50;;
43327;SDS011;28923;45.412;10.852;2023-06-10T15:23:22;1.90;;;1.30;;
43327;SDS011;28923;45.412;10.852;2023-06-10T15:25:47;2.42;;;1.17;;
43327;SDS011;28923;45.412;10.852;2023-06-10T15:28:13;1.83;;;1.30;;
43327;SDS011;28923;45.412;10.852;2023-06-10T15:30:38;2.00;;;1.23;;
43327;SDS011;28923;45.412;10.852;2023-06-10T15:33:04;1.75;;;1.08;;
43327;SDS011;28923;45.412;10.852;2023-06-10T15:35:31;2.13;;;1.42;;
43327;SDS011;28923;45.412;10.852;2023-06-10T15:37:56;2.20;;;1.40;;
43327;SDS011;28923;45.412;10.852;2023-06-10T15:40:22;1.30;;;1.20;;
43327;SDS011;28923;45.412;10.852;2023-06-10T15:42:47;3.15;;;1.35;;
43327;SDS011;28923;45.412;10.852;2023-06-10T15:45:12;3.15;;;1.10;;
43327;SDS011;28923;45.412;10.852;2023-06-10T15:47:38;1.55;;;1.30;;
43327;SDS011;28923;45.412;10.852;2023-06-10T15:50:05;1.40;;;1.30;;
43327;SDS011;28923;45.412;10.852;2023-06-10T15:52:31;1.73;;;1.13;;
43327;SDS011;28923;45.412;10.852;2023-06-10T15:54:56;1.48;;;1.20;;
43327;SDS011;28923;45.412;10.852;2023-06-10T15:57:22;2.47;;;1.20;;
43327;SDS011;28923;45.412;10.852;2023-06-10T15:59:47;1.65;;;1.30;;
43327;SDS011;28923;45.412;10.852;2023-06-10T16:02:12;3.72;;;1.40;;
43327;SDS011;28923;45.412;10.852;2023-06-10T16:04:38;1.50;;;1.30;;
43327;SDS011;28923;45.412;10.852;2023-06-10T16:07:03;2.65;;;1.40;;
43327;SDS011;28923;45.412;10.852;2023-06-10T16:09:29;1.75;;;1.20;;
43327;SDS011;28923;45.412;10.852;2023-06-10T16:11:54;2.05;;;1.17;;
43327;SDS011;28923;45.412;10.852;2023-06-10T16:14:20;1.33;;;1.20;;
43327;SDS011;28923;45.412;10.852;2023-06-10T16:16:46;3.15;;;1.30;;
43327;SDS011;28923;45.412;10.852;2023-06-10T16:19:11;1.83;;;1.30;;
43327;SDS011;28923;45.412;10.852;2023-06-10T16:21:37;1.55;;;1.20;;
43327;SDS011;28923;45.412;10.852;2023-06-10T16:24:05;3.10;;;1.50;;
43327;SDS011;28923;45.412;10.852;2023-06-10T16:26:30;2.15;;;1.20;;
43327;SDS011;28923;45.412;10.852;2023-06-10T16:28:55;1.23;;;1.13;;
43327;SDS011;28923;45.412;10.852;2023-06-10T16:31:21;2.45;;;1.23;;
43327;SDS011;28923;45.412;10.852;2023-06-10T16:33:46;2.50;;;1.42;;
43327;SDS011;28923;45.412;10.852;2023-06-10T16:36:12;1.48;;;1.30;;
43327;SDS011;28923;45.412;10.852;2023-06-10T16:38:37;3.08;;;1.17;;
43327;SDS011;28923;45.412;10.852;2023-06-10T16:41:02;1.20;;;1.10;;
43327;SDS011;28923;45.412;10.852;2023-06-10T16:43:28;1.75;;;1.23;;
43327;SDS011;28923;45.412;10.852;2023-06-10T16:45:53;4.97;;;1.35;;
43327;SDS011;28923;45.412;10.852;2023-06-10T16:48:20;3.13;;;1.58;;
43327;SDS011;28923;45.412;10.852;2023-06-10T16:50:46;5.70;;;1.50;;
43327;SDS011;28923;45.412;10.852;2023-06-10T16:53:11;3.83;;;1.25;;
43327;SDS011;28923;45.412;10.852;2023-06-10T16:55:36;1.63;;;1.10;;
43327;SDS011;28923;45.412;10.852;2023-06-10T16:58:03;1.33;;;1.20;;
43327;SDS011;28923;45.412;10.852;2023-06-10T17:00:29;3.08;;;1.58;;
43327;SDS011;28923;45.412;10.852;2023-06-10T17:02:55;4.72;;;1.23;;
43327;SDS011;28923;45.412;10.852;2023-06-10T17:05:20;4.25;;;1.10;;
43327;SDS011;28923;45.412;10.852;2023-06-10T17:07:45;2.45;;;1.27;;
43327;SDS011;28923;45.412;10.852;2023-06-10T17:10:12;1.33;;;1.23;;
43327;SDS011;28923;45.412;10.852;2023-06-10T17:12:37;1.33;;;1.20;;
43327;SDS011;28923;45.412;10.852;2023-06-10T17:15:04;1.40;;;1.30;;
43327;SDS011;28923;45.412;10.852;2023-06-10T17:17:29;1.40;;;1.30;;
43327;SDS011;28923;45.412;10.852;2023-06-10T17:19:55;1.67;;;1.48;;
43327;SDS011;28923;45.412;10.852;2023-06-10T17:22:20;1.55;;;1.10;;
43327;SDS011;28923;45.412;10.852;2023-06-10T17:24:46;2.67;;;1.50;;
43327;SDS011;28923;45.412;10.852;2023-06-10T17:27:11;2.10;;;1.50;;
43327;SDS011;28923;45.412;10.852;2023-06-10T17:29:36;1.67;;;1.15;;
43327;SDS011;28923;45.412;10.852;2023-06-10T17:32:04;1.80;;;1.20;;
43327;SDS011;28923;45.412;10.852;2023-06-10T17:34:29;1.88;;;1.10;;
43327;SDS011;28923;45.412;10.852;2023-06-10T17:36:55;2.05;;;1.67;;
43327;SDS011;28923;45.412;10.852;2023-06-10T17:39:20;1.20;;;1.00;;
43327;SDS011;28923;45.412;10.852;2023-06-10T17:41:46;1.45;;;1.27;;
43327;SDS011;28923;45.412;10.852;2023-06-10T17:44:11;2.03;;;1.40;;
43327;SDS011;28923;45.412;10.852;2023-06-10T17:46:36;3.05;;;2.00;;
43327;SDS011;28923;45.412;10.852;2023-06-10T17:49:02;2.90;;;1.90;;
43327;SDS011;28923;45.412;10.852;2023-06-10T17:51:27;4.95;;;2.42;;
43327;SDS011;28923;45.412;10.852;2023-06-10T17:53:53;5.72;;;2.38;;
43327;SDS011;28923;45.412;10.852;2023-06-10T17:56:18;7.32;;;2.70;;
43327;SDS011;28923;45.412;10.852;2023-06-10T17:58:43;3.63;;;2.13;;
43327;SDS011;28923;45.412;10.852;2023-06-10T18:01:09;3.85;;;2.15;;
43327;SDS011;28923;45.412;10.852;2023-06-10T18:03:35;5.70;;;3.03;;
43327;SDS011;28923;45.412;10.852;2023-06-10T18:06:01;5.35;;;2.92;;
43327;SDS011;28923;45.412;10.852;2023-06-10T18:08:27;5.22;;;3.28;;
43327;SDS011;28923;45.412;10.852;2023-06-10T18:10:53;5.63;;;2.85;;
43327;SDS011;28923;45.412;10.852;2023-06-10T18:13:19;6.72;;;2.70;;
43327;SDS011;28923;45.412;10.852;2023-06-10T18:15:44;5.20;;;2.40;;
43327;SDS011;28923;45.412;10.852;2023-06-10T18:18:10;5.05;;;2.75;;
43327;SDS011;28923;45.412;10.852;2023-06-10T18:20:35;5.05;;;2.53;;
43327;SDS011;28923;45.412;10.852;2023-06-10T18:23:01;6.53;;;2.67;;
43327;SDS011;28923;45.412;10.852;2023-06-10T18:25:26;5.43;;;2.55;;
43327;SDS011;28923;45.412;10.852;2023-06-10T18:27:52;5.15;;;2.40;;
43327;SDS011;28923;45.412;10.852;2023-06-10T18:30:17;5.30;;;2.45;;
43327;SDS011;28923;45.412;10.852;2023-06-10T18:32:42;3.60;;;2.50;;
43327;SDS011;28923;45.412;10.852;2023-06-10T18:35:08;4.07;;;2.50;;
43327;SDS011;28923;45.412;10.852;2023-06-10T18:37:37;6.00;;;2.53;;
43327;SDS011;28923;45.412;10.852;2023-06-10T18:40:02;5.00;;;2.42;;
43327;SDS011;28923;45.412;10.852;2023-06-10T18:42:30;4.95;;;2.75;;
43327;SDS011;28923;45.412;10.852;2023-06-10T18:44:55;6.93;;;2.65;;
43327;SDS011;28923;45.412;10.852;2023-06-10T18:47:20;4.28;;;2.60;;
43327;SDS011;28923;45.412;10.852;2023-06-10T18:49:46;3.47;;;2.28;;
43327;SDS011;28923;45.412;10.852;2023-06-10T18:52:12;5.40;;;2.60;;
43327;SDS011;28923;45.412;10.852;2023-06-10T18:54:37;4.70;;;2.50;;
43327;SDS011;28923;45.412;10.852;2023-06-10T18:57:03;8.98;;;2.90;;
43327;SDS011;28923;45.412;10.852;2023-06-10T18:59:28;3.78;;;2.10;;
43327;SDS011;28923;45.412;10.852;2023-06-10T19:01:53;3.95;;;2.25;;
43327;SDS011;28923;45.412;10.852;2023-06-10T19:04:19;2.92;;;1.92;;
43327;SDS011;28923;45.412;10.852;2023-06-10T19:06:44;2.17;;;1.52;;
43327;SDS011;28923;45.412;10.852;2023-06-10T19:09:10;3.63;;;1.38;;
43327;SDS011;28923;45.412;10.852;2023-06-10T19:11:35;2.78;;;1.20;;